Time;durP1;ratioP1;P1;durP2;ratioP2;P2;SDS_P1;SDS_P2;PMS_P1;PMS_P2;Temp;Humidity;BMP_temperature;BMP_pressure;BME280_temperature;BME280_humidity;BME280_pressure;Samples;Min_cycle;Max_cycle;Signal;HPM_P1;HPM_P2
2023/11/15 00:01:48;;;;;;;22.67;8.77;;;9.10;99.90;;;;;;4977142;28;20019;-66
2023/11/15 00:04:14;;;;;;;31.65;10.23;;;9.10;99.90;;;;;;4982984;28;20463;-66
2023/11/15 00:06:40;;;;;;;19.90;8.00;;;9.10;99.90;;;;;;4982821;28;20046;-66
2023/11/15 00:09:06;;;;;;;21.92;8.57;;;9.20;99.90;;;;;;4981464;28;20428;-66
2023/11/15 00:11:33;;;;;;;17.35;7.90;;;9.20;99.90;;;;;;4984535;28;20034;-66
2023/11/15 00:13:59;;;;;;;25.48;9.05;;;9.10;99.90;;;;;;4979661;28;20065;-66
2023/11/15 00:16:25;;;;;;;25.27;9.40;;;9.20;99.90;;;;;;4981910;28;20101;-66
2023/11/15 00:18:53;;;;;;;22.17;8.27;;;9.20;99.90;;;;;;4981438;28;20493;-66
2023/11/15 00:21:19;;;;;;;22.05;9.65;;;9.20;99.90;;;;;;4982755;28;20410;-66
2023/11/15 00:23:45;;;;;;;30.70;10.40;;;9.20;99.90;;;;;;4980645;28;20046;-66
2023/11/15 00:26:11;;;;;;;32.08;9.93;;;9.20;99.90;;;;;;4943842;28;20032;-66
2023/11/15 00:28:39;;;;;;;26.05;9.30;;;9.20;99.90;;;;;;4980529;28;20030;-66
2023/11/15 00:31:05;;;;;;;28.15;11.10;;;9.20;99.90;;;;;;4981752;28;20037;-66
2023/11/15 00:33:31;;;;;;;19.30;8.38;;;9.20;99.90;;;;;;4981597;28;20023;-66
2023/11/15 00:35:56;;;;;;;27.45;8.95;;;9.20;99.90;;;;;;4943840;29;20079;-66
2023/11/15 00:38:27;;;;;;;20.25;7.60;;;9.10;99.90;;;;;;4981590;28;20034;-66
2023/11/15 00:40:53;;;;;;;17.73;6.78;;;9.20;99.90;;;;;;4981640;28;20050;-66
2023/11/15 00:43:18;;;;;;;18.75;7.97;;;9.20;99.90;;;;;;4979421;28;20030;-66
2023/11/15 00:45:44;;;;;;;25.23;7.78;;;9.20;99.90;;;;;;4978055;28;20038;-66
2023/11/15 00:48:10;;;;;;;20.77;8.95;;;9.20;99.90;;;;;;4982508;28;20109;-63
2023/11/15 00:50:36;;;;;;;18.35;7.47;;;9.20;99.90;;;;;;4975963;28;20031;-63
2023/11/15 00:53:03;;;;;;;27.23;9.15;;;9.20;99.90;;;;;;4971410;28;20027;-63
2023/11/15 00:55:29;;;;;;;22.00;8.57;;;9.20;99.90;;;;;;4980425;28;20036;-63
2023/11/15 00:57:55;;;;;;;21.55;6.18;;;9.20;99.90;;;;;;4946437;28;20114;-63
2023/11/15 01:00:24;;;;;;;19.90;6.72;;;9.20;99.90;;;;;;4978994;28;20072;-63
2023/11/15 01:02:59;;;;;;;22.85;9.70;;;9.20;99.90;;;;;;4942654;28;20039;-63
2023/11/15 01:05:26;;;;;;;23.27;7.68;;;9.20;99.90;;;;;;4978022;28;20030;-63
2023/11/15 01:07:51;;;;;;;17.50;7.72;;;9.20;99.90;;;;;;4980736;28;20065;-63
2023/11/15 01:10:18;;;;;;;20.02;7.53;;;9.10;99.90;;;;;;4977662;28;20490;-63
2023/11/15 01:12:44;;;;;;;19.13;6.47;;;9.10;99.90;;;;;;4976367;28;20398;-63
2023/11/15 01:15:11;;;;;;;17.42;6.00;;;9.20;99.90;;;;;;4978230;28;20026;-63
2023/11/15 01:17:38;;;;;;;16.48;5.40;;;9.10;99.90;;;;;;4947038;28;20035;-63
2023/11/15 01:20:05;;;;;;;12.32;4.30;;;9.10;99.90;;;;;;4976415;28;20035;-63
2023/11/15 01:22:31;;;;;;;17.65;5.32;;;9.10;99.90;;;;;;4979519;28;20030;-63
2023/11/15 01:24:56;;;;;;;16.23;4.15;;;9.10;99.90;;;;;;4977812;28;20117;-63
2023/11/15 01:27:22;;;;;;;15.30;4.90;;;9.10;99.90;;;;;;4979539;28;20402;-63
2023/11/15 01:29:49;;;;;;;12.10;3.65;;;9.10;99.90;;;;;;4976501;28;20080;-63
2023/11/15 01:32:15;;;;;;;15.85;4.90;;;9.10;99.90;;;;;;4979238;28;20401;-63
2023/11/15 01:34:41;;;;;;;14.40;4.43;;;9.10;99.90;;;;;;4976269;28;20034;-63
2023/11/15 01:37:06;;;;;;;11.85;4.10;;;9.10;99.90;;;;;;4978860;28;20101;-64
2023/11/15 01:39:32;;;;;;;16.85;4.72;;;9.10;99.90;;;;;;4977992;28;20031;-64
2023/11/15 01:41:58;;;;;;;11.95;4.30;;;9.10;99.90;;;;;;4979516;28;20034;-64
2023/11/15 01:44:24;;;;;;;11.02;3.72;;;9.00;99.90;;;;;;4977942;28;20749;-63
2023/11/15 01:46:52;;;;;;;13.82;4.80;;;9.00;99.90;;;;;;4977981;28;20113;-63
2023/11/15 01:49:20;;;;;;;14.02;3.63;;;9.00;99.90;;;;;;4979439;28;20046;-63
2023/11/15 01:51:46;;;;;;;15.93;4.45;;;9.00;99.90;;;;;;4977594;28;20046;-63
2023/11/15 01:54:14;;;;;;;16.67;4.60;;;9.00;99.90;;;;;;4975172;28;20530;-63
2023/11/15 01:56:40;;;;;;;15.55;4.05;;;8.90;99.90;;;;;;4978981;28;20106;-63
2023/11/15 01:59:08;;;;;;;12.50;3.95;;;8.90;99.90;;;;;;4973789;28;20027;-64
2023/11/15 02:01:34;;;;;;;10.95;2.90;;;8.90;99.90;;;;;;4974017;28;20069;-64
2023/11/15 02:04:00;;;;;;;15.68;4.38;;;8.90;99.90;;;;;;4979075;28;20474;-65
2023/11/15 02:06:30;;;;;;;13.68;3.75;;;8.90;99.90;;;;;;4978184;28;20065;-65
2023/11/15 02:08:56;;;;;;;13.35;3.38;;;8.90;99.90;;;;;;4977608;28;20046;-65
2023/11/15 02:11:22;;;;;;;14.35;3.20;;;8.90;99.90;;;;;;4979703;28;20383;-65
2023/11/15 02:13:48;;;;;;;11.90;2.90;;;8.90;99.90;;;;;;4979009;28;20030;-65
2023/11/15 02:16:14;;;;;;;14.38;3.20;;;8.80;99.90;;;;;;4977192;28;20116;-66
2023/11/15 02:18:40;;;;;;;7.13;2.47;;;8.80;99.90;;;;;;4977404;28;20035;-66
2023/11/15 02:21:05;;;;;;;6.47;2.20;;;8.70;99.90;;;;;;4946009;28;20027;-65
2023/11/15 02:23:31;;;;;;;10.10;2.35;;;8.70;99.90;;;;;;4977434;28;20437;-65
2023/11/15 02:25:57;;;;;;;11.43;2.72;;;8.70;99.90;;;;;;4939920;28;20054;-65
2023/11/15 02:28:23;;;;;;;8.23;2.58;;;8.70;99.90;;;;;;4977183;28;20685;-65
2023/11/15 02:30:49;;;;;;;8.77;2.45;;;8.70;99.90;;;;;;4982779;28;20097;-65
2023/11/15 02:33:14;;;;;;;7.50;1.60;;;8.60;99.90;;;;;;4979868;28;20462;-65
2023/11/15 02:35:41;;;;;;;6.18;1.73;;;8.60;99.90;;;;;;4979816;28;20160;-65
2023/11/15 02:38:07;;;;;;;8.30;2.00;;;8.60;99.90;;;;;;4978788;28;20034;-65
2023/11/15 02:40:32;;;;;;;5.63;1.67;;;8.60;99.90;;;;;;4982365;28;20173;-65
2023/11/15 02:42:59;;;;;;;10.32;2.20;;;8.60;99.90;;;;;;4979299;28;20109;-65
2023/11/15 02:45:24;;;;;;;11.68;2.40;;;8.60;99.90;;;;;;4981117;28;20113;-65
2023/11/15 02:47:50;;;;;;;7.88;2.53;;;8.60;99.90;;;;;;4973337;28;20121;-65
2023/11/15 02:50:16;;;;;;;10.15;3.05;;;8.60;99.90;;;;;;4980615;28;20033;-65
2023/11/15 02:52:41;;;;;;;12.43;3.42;;;8.60;99.90;;;;;;4979122;28;20046;-65
2023/11/15 02:55:08;;;;;;;9.27;3.28;;;8.70;99.90;;;;;;4981624;28;20394;-65
2023/11/15 02:57:34;;;;;;;14.38;4.03;;;8.70;99.90;;;;;;4977966;28;20429;-65
2023/11/15 03:00:00;;;;;;;16.80;5.45;;;8.70;99.90;;;;;;4980199;28;20019;-65
2023/11/15 03:02:25;;;;;;;20.20;7.45;;;8.70;99.90;;;;;;4981914;28;20114;-65
2023/11/15 03:04:51;;;;;;;31.38;9.95;;;8.80;99.90;;;;;;4969844;28;20038;-65
2023/11/15 03:07:17;;;;;;;31.40;11.93;;;8.90;99.90;;;;;;4982188;28;20034;-65
2023/11/15 03:09:43;;;;;;;26.05;8.95;;;9.00;99.90;;;;;;4980273;28;20042;-64
2023/11/15 03:12:09;;;;;;;27.10;9.73;;;9.10;99.90;;;;;;4980676;28;20030;-64
2023/11/15 03:14:34;;;;;;;32.92;11.20;;;9.20;99.90;;;;;;4981416;28;20094;-64
2023/11/15 03:17:11;;;;;;;29.05;11.85;;;9.20;99.90;;;;;;4980991;28;20153;-64
2023/11/15 03:19:39;;;;;;;23.92;9.55;;;9.30;99.90;;;;;;4977007;28;20080;-64
2023/11/15 03:22:05;;;;;;;32.20;11.27;;;9.30;99.90;;;;;;4980101;28;20117;-64
2023/11/15 03:24:30;;;;;;;28.73;10.02;;;9.30;99.90;;;;;;4982070;28;20173;-64
2023/11/15 03:26:56;;;;;;;29.98;11.90;;;9.30;99.90;;;;;;4979190;28;20391;-64
2023/11/15 03:29:21;;;;;;;42.42;11.80;;;9.30;99.90;;;;;;4980927;28;20030;-64
2023/11/15 03:31:47;;;;;;;34.67;12.07;;;9.40;99.90;;;;;;4979926;28;20387;-65
2023/11/15 03:34:13;;;;;;;34.53;11.85;;;9.40;99.90;;;;;;4978594;28;20023;-65
2023/11/15 03:36:40;;;;;;;26.05;11.73;;;9.40;99.90;;;;;;4982484;28;20029;-65
2023/11/15 03:39:08;;;;;;;33.58;13.80;;;9.40;99.90;;;;;;4981095;28;20018;-65
2023/11/15 03:41:34;;;;;;;20.92;6.95;;;9.40;99.90;;;;;;4981783;28;20050;-66
2023/11/15 03:44:00;;;;;;;11.90;4.43;;;9.30;99.90;;;;;;4985469;28;20019;-65
2023/11/15 03:46:26;;;;;;;21.80;8.07;;;9.30;99.90;;;;;;4981156;28;20034;-65
2023/11/15 03:48:52;;;;;;;21.67;8.05;;;9.20;99.90;;;;;;4979946;28;20082;-65
2023/11/15 03:51:18;;;;;;;19.90;7.13;;;9.20;99.90;;;;;;4981968;28;20105;-65
2023/11/15 03:53:44;;;;;;;17.25;5.97;;;9.20;99.90;;;;;;4980420;28;20172;-65
2023/11/15 03:56:09;;;;;;;22.40;6.07;;;9.20;99.90;;;;;;4978764;28;20029;-65
2023/11/15 03:58:36;;;;;;;9.68;4.07;;;9.20;99.90;;;;;;4980845;28;20030;-65
2023/11/15 04:01:04;;;;;;;14.68;3.75;;;9.20;99.90;;;;;;4981782;28;20025;-65
2023/11/15 04:03:30;;;;;;;11.32;2.92;;;9.10;99.90;;;;;;4980937;28;20034;-65
2023/11/15 04:05:59;;;;;;;8.63;2.78;;;8.90;99.90;;;;;;4979847;28;20030;-65
2023/11/15 04:08:27;;;;;;;7.72;2.53;;;8.80;99.90;;;;;;4981989;28;20125;-65
2023/11/15 04:10:53;;;;;;;9.80;2.13;;;8.70;99.90;;;;;;4980008;28;20462;-65
2023/11/15 04:13:20;;;;;;;12.23;2.65;;;8.60;99.90;;;;;;4979982;28;20032;-65
2023/11/15 04:15:47;;;;;;;7.03;1.98;;;8.50;99.90;;;;;;4979946;28;20118;-65
2023/11/15 04:18:13;;;;;;;6.60;2.13;;;8.40;99.90;;;;;;4977548;28;20430;-64
2023/11/15 04:20:38;;;;;;;7.90;2.20;;;8.40;99.90;;;;;;4978687;28;20030;-64
2023/11/15 04:23:04;;;;;;;7.28;2.45;;;8.40;99.90;;;;;;4982276;28;20031;-64
2023/11/15 04:25:31;;;;;;;8.18;2.70;;;8.40;99.90;;;;;;4980975;28;20092;-64
2023/11/15 04:27:56;;;;;;;9.07;2.60;;;8.40;99.90;;;;;;4979308;28;20026;-63
2023/11/15 04:30:22;;;;;;;8.20;2.60;;;8.40;99.90;;;;;;4979470;28;20042;-63
2023/11/15 04:32:48;;;;;;;8.85;2.80;;;8.40;99.90;;;;;;4978476;28;20538;-63
2023/11/15 04:35:13;;;;;;;10.07;2.88;;;8.40;99.90;;;;;;4980594;28;20118;-63
2023/11/15 04:37:39;;;;;;;7.30;2.55;;;8.40;99.90;;;;;;4976517;28;20113;-63
2023/11/15 04:40:10;;;;;;;9.32;3.33;;;8.30;99.90;;;;;;4980403;28;20081;-63
2023/11/15 04:42:36;;;;;;;11.13;3.30;;;8.30;99.90;;;;;;4981993;28;20510;-63
2023/11/15 04:45:03;;;;;;;16.45;5.38;;;8.40;99.90;;;;;;4974186;28;20029;-63
2023/11/15 04:47:30;;;;;;;19.42;6.50;;;8.50;99.90;;;;;;4981998;28;20034;-63
2023/11/15 04:49:56;;;;;;;20.40;8.43;;;8.50;99.90;;;;;;4979920;28;20053;-63
2023/11/15 04:52:21;;;;;;;33.55;10.70;;;8.60;99.90;;;;;;4979545;28;20065;-63
2023/11/15 04:54:49;;;;;;;39.05;9.32;;;8.70;99.90;;;;;;4981776;28;20478;-63
2023/11/15 04:57:16;;;;;;;30.17;10.88;;;8.90;99.90;;;;;;4981084;28;20014;-63
2023/11/15 04:59:41;;;;;;;21.20;7.75;;;9.00;99.90;;;;;;4977322;28;20508;-63
2023/11/15 05:02:07;;;;;;;25.63;10.20;;;9.10;99.90;;;;;;4978549;28;20117;-63
2023/11/15 05:04:33;;;;;;;22.25;9.15;;;9.10;99.90;;;;;;4964013;28;20022;-63
2023/11/15 05:06:59;;;;;;;22.20;8.35;;;9.10;99.90;;;;;;4979166;28;20414;-63
2023/11/15 05:09:27;;;;;;;31.90;9.30;;;9.10;99.90;;;;;;4977343;28;20490;-63
2023/11/15 05:11:53;;;;;;;35.50;11.88;;;9.20;99.90;;;;;;4974871;28;20030;-62
2023/11/15 05:14:18;;;;;;;30.48;9.27;;;9.20;99.90;;;;;;4977618;28;20117;-62
2023/11/15 05:16:46;;;;;;;31.35;10.55;;;9.20;99.90;;;;;;4980778;28;20033;-62
2023/11/15 05:19:12;;;;;;;28.65;10.35;;;9.20;99.90;;;;;;4978676;28;20034;-62
2023/11/15 05:21:37;;;;;;;22.65;9.43;;;9.20;99.90;;;;;;4974075;28;20383;-63
2023/11/15 05:24:03;;;;;;;24.70;9.80;;;9.20;99.90;;;;;;4980804;28;20085;-63
2023/11/15 05:26:29;;;;;;;22.88;8.88;;;9.20;99.90;;;;;;4978817;28;20046;-63
2023/11/15 05:28:54;;;;;;;37.80;10.45;;;9.20;99.90;;;;;;4978868;28;20437;-65
2023/11/15 05:31:23;;;;;;;30.35;9.70;;;9.20;99.90;;;;;;4976955;28;20033;-64
2023/11/15 05:33:48;;;;;;;32.60;9.55;;;9.20;99.90;;;;;;4979477;28;20050;-64
2023/11/15 05:36:14;;;;;;;30.38;10.27;;;9.20;99.90;;;;;;4977744;28;20498;-64
2023/11/15 05:38:40;;;;;;;27.35;11.05;;;9.20;99.90;;;;;;4981304;28;20122;-64
2023/11/15 05:41:06;;;;;;;29.48;9.32;;;9.20;99.90;;;;;;4976712;28;20026;-64
2023/11/15 05:43:31;;;;;;;24.58;8.63;;;9.20;99.90;;;;;;4977995;28;20018;-64
2023/11/15 05:45:57;;;;;;;26.02;10.20;;;9.20;99.90;;;;;;4980645;28;20023;-64
2023/11/15 05:48:23;;;;;;;30.35;11.48;;;9.30;99.90;;;;;;4975521;28;20024;-64
2023/11/15 05:50:48;;;;;;;29.80;9.07;;;9.30;99.90;;;;;;4979086;28;20422;-64
2023/11/15 05:53:16;;;;;;;28.27;10.45;;;9.30;99.90;;;;;;4972845;28;20575;-64
2023/11/15 05:55:42;;;;;;;20.30;9.52;;;9.30;99.90;;;;;;4976996;28;20082;-64
2023/11/15 05:58:09;;;;;;;25.58;9.18;;;9.20;99.90;;;;;;4978426;28;20431;-64
2023/11/15 06:00:35;;;;;;;29.65;11.25;;;9.30;99.90;;;;;;4977540;28;20053;-64
2023/11/15 06:03:01;;;;;;;34.78;9.98;;;9.20;99.90;;;;;;4974472;28;20079;-64
2023/11/15 06:05:29;;;;;;;28.10;8.45;;;9.20;99.90;;;;;;4976096;28;20038;-64
2023/11/15 06:07:54;;;;;;;31.45;10.05;;;9.20;99.90;;;;;;4971053;28;20105;-64
2023/11/15 06:10:20;;;;;;;30.27;10.60;;;9.20;99.90;;;;;;4976924;28;20720;-64
2023/11/15 06:12:46;;;;;;;23.85;8.88;;;9.20;99.90;;;;;;4973695;28;20026;-64
2023/11/15 06:15:11;;;;;;;29.70;8.68;;;9.20;99.90;;;;;;4975026;28;20348;-64
2023/11/15 06:17:39;;;;;;;31.85;10.50;;;9.20;99.90;;;;;;4976508;28;20038;-64
2023/11/15 06:20:09;;;;;;;25.13;10.35;;;9.30;99.90;;;;;;4977806;28;20075;-64
2023/11/15 06:22:37;;;;;;;27.92;10.65;;;9.30;99.90;;;;;;4977784;28;20575;-64
2023/11/15 06:25:07;;;;;;;21.08;9.07;;;9.20;99.90;;;;;;4976893;28;20312;-64
2023/11/15 06:27:33;;;;;;;22.98;7.95;;;9.30;99.90;;;;;;4973173;28;20125;-64
2023/11/15 06:30:00;;;;;;;34.03;9.75;;;9.30;99.90;;;;;;4976327;28;20019;-64
2023/11/15 06:32:29;;;;;;;28.05;9.77;;;9.20;99.90;;;;;;4976365;28;20474;-64
2023/11/15 06:34:55;;;;;;;29.98;8.27;;;9.20;99.90;;;;;;4973700;28;20077;-64
2023/11/15 06:37:20;;;;;;;31.45;10.15;;;9.20;99.90;;;;;;4978593;28;20026;-64
2023/11/15 06:39:48;;;;;;;27.88;8.98;;;9.30;99.90;;;;;;4978003;28;20367;-65
2023/11/15 06:42:14;;;;;;;27.30;10.02;;;9.30;99.90;;;;;;4984097;28;20023;-64
2023/11/15 06:44:40;;;;;;;23.70;7.55;;;9.30;99.90;;;;;;4985684;28;20168;-64
2023/11/15 06:47:08;;;;;;;23.55;7.50;;;9.30;99.90;;;;;;4986101;28;20030;-64
2023/11/15 06:49:35;;;;;;;27.63;7.78;;;9.30;99.90;;;;;;4984696;28;20040;-64
2023/11/15 06:52:00;;;;;;;21.55;7.57;;;9.30;99.90;;;;;;4981263;28;20486;-64
2023/11/15 06:54:26;;;;;;;19.25;6.88;;;9.20;99.90;;;;;;4984441;28;20098;-64
2023/11/15 06:56:52;;;;;;;17.42;5.20;;;9.30;99.90;;;;;;4984637;28;20030;-64
2023/11/15 06:59:19;;;;;;;25.50;5.30;;;9.20;99.90;;;;;;4983699;28;20032;-64
2023/11/15 07:01:49;;;;;;;15.60;4.97;;;9.20;99.90;;;;;;4983364;28;20027;-64
2023/11/15 07:04:16;;;;;;;19.35;6.35;;;9.20;99.90;;;;;;4982425;28;20040;-64
2023/11/15 07:06:45;;;;;;;16.23;5.80;;;9.30;99.90;;;;;;4985908;28;20031;-64
2023/11/15 07:09:12;;;;;;;24.65;7.30;;;9.20;99.90;;;;;;4982544;28;20055;-64
2023/11/15 07:11:45;;;;;;;19.35;6.32;;;9.20;99.90;;;;;;4983832;28;20035;-64
2023/11/15 07:14:10;;;;;;;19.20;6.00;;;9.20;99.90;;;;;;4985670;28;20475;-64
2023/11/15 07:16:36;;;;;;;20.33;6.30;;;9.20;99.90;;;;;;4982747;28;20028;-64
2023/11/15 07:19:02;;;;;;;23.88;6.55;;;9.20;99.90;;;;;;4987795;28;20026;-64
2023/11/15 07:21:29;;;;;;;21.98;6.18;;;9.10;99.90;;;;;;4982454;28;20038;-64
2023/11/15 07:23:58;;;;;;;20.25;6.80;;;9.10;99.90;;;;;;4983018;28;20027;-64
2023/11/15 07:26:24;;;;;;;15.20;5.28;;;9.10;99.90;;;;;;4981295;28;20089;-64
2023/11/15 07:28:50;;;;;;;17.98;5.60;;;9.10;99.90;;;;;;4978216;28;20091;-64
2023/11/15 07:31:18;;;;;;;18.80;5.10;;;9.20;99.90;;;;;;4984620;28;20133;-64
2023/11/15 07:33:44;;;;;;;17.55;5.38;;;9.20;99.90;;;;;;4983033;28;20041;-64
2023/11/15 07:36:11;;;;;;;24.17;6.68;;;9.20;99.90;;;;;;4986259;28;20026;-64
2023/11/15 07:38:36;;;;;;;13.73;4.95;;;9.20;99.90;;;;;;4985374;28;20061;-64
2023/11/15 07:41:02;;;;;;;15.10;4.95;;;9.20;99.90;;;;;;4985453;28;20435;-64
2023/11/15 07:43:28;;;;;;;16.10;4.85;;;9.20;99.90;;;;;;4984497;28;20404;-64
2023/11/15 07:45:54;;;;;;;12.00;4.70;;;9.20;99.90;;;;;;4986567;28;20080;-64
2023/11/15 07:48:20;;;;;;;9.00;3.45;;;9.30;99.90;;;;;;4983144;28;20031;-64
2023/11/15 07:50:46;;;;;;;11.70;4.90;;;9.30;99.90;;;;;;4986432;28;20466;-64
2023/11/15 07:53:12;;;;;;;14.50;4.57;;;9.30;99.90;;;;;;4982092;28;20153;-64
2023/11/15 07:55:38;;;;;;;15.10;5.28;;;9.30;99.90;;;;;;4982314;28;20104;-64
2023/11/15 07:58:06;;;;;;;18.52;4.78;;;9.30;99.90;;;;;;4981929;28;20098;-64
2023/11/15 08:00:35;;;;;;;16.33;5.80;;;9.40;99.90;;;;;;4981541;28;20493;-64
2023/11/15 08:03:01;;;;;;;17.10;5.25;;;9.40;99.90;;;;;;4983219;28;20023;-65
2023/11/15 08:05:27;;;;;;;15.65;5.07;;;9.50;99.90;;;;;;4984402;28;20035;-64
2023/11/15 08:07:53;;;;;;;17.25;5.70;;;9.50;99.90;;;;;;4980501;28;20041;-64
2023/11/15 08:10:19;;;;;;;20.13;6.63;;;9.50;99.90;;;;;;4982751;28;20058;-64
2023/11/15 08:12:48;;;;;;;18.73;5.70;;;9.50;99.90;;;;;;4983399;28;20113;-64
2023/11/15 08:15:15;;;;;;;13.07;4.05;;;9.50;99.90;;;;;;4980970;28;20470;-64
2023/11/15 08:17:50;;;;;;;15.25;5.32;;;9.50;99.90;;;;;;4980573;28;20084;-64
2023/11/15 08:20:17;;;;;;;14.98;6.85;;;9.50;99.90;;;;;;4982928;28;20584;-64
2023/11/15 08:22:43;;;;;;;21.38;4.55;;;9.50;99.90;;;;;;4980915;28;20051;-65
2023/11/15 08:25:12;;;;;;;13.02;4.28;;;9.50;99.90;;;;;;4982430;28;20031;-64
2023/11/15 08:27:41;;;;;;;17.10;6.55;;;9.60;99.90;;;;;;4978093;28;20027;-64
2023/11/15 08:30:14;;;;;;;16.65;5.88;;;9.60;99.90;;;;;;4982272;28;20050;-64
2023/11/15 08:32:41;;;;;;;12.80;4.82;;;9.60;99.90;;;;;;4948711;28;20057;-64
2023/11/15 08:35:09;;;;;;;32.75;5.70;;;9.70;99.90;;;;;;4983136;28;20026;-64
2023/11/15 08:37:36;;;;;;;16.17;5.75;;;9.70;99.90;;;;;;4983134;28;20117;-64
2023/11/15 08:40:02;;;;;;;14.57;5.45;;;9.70;99.90;;;;;;4976420;28;20019;-65
2023/11/15 08:42:28;;;;;;;18.30;5.90;;;9.80;99.90;;;;;;4981696;28;20447;-65
2023/11/15 08:44:53;;;;;;;21.42;5.65;;;9.80;99.90;;;;;;4981175;28;20038;-65
2023/11/15 08:47:21;;;;;;;18.33;5.50;;;9.80;99.90;;;;;;4980605;28;20029;-65
2023/11/15 08:49:50;;;;;;;19.52;6.70;;;9.70;99.90;;;;;;4982530;28;20050;-65
2023/11/15 08:52:18;;;;;;;18.33;6.72;;;9.70;99.90;;;;;;4975545;28;20022;-65
2023/11/15 08:54:47;;;;;;;19.77;4.82;;;9.70;99.90;;;;;;4981733;28;20034;-65
2023/11/15 08:57:16;;;;;;;26.50;5.85;;;9.70;99.90;;;;;;4981213;28;20132;-65
2023/11/15 08:59:42;;;;;;;17.38;5.20;;;9.80;99.90;;;;;;4978047;28;20038;-64
2023/11/15 09:02:10;;;;;;;28.02;6.25;;;9.90;99.90;;;;;;4978816;28;20057;-64
2023/11/15 09:04:38;;;;;;;26.58;6.30;;;10.00;99.90;;;;;;4981906;28;20030;-64
2023/11/15 09:07:04;;;;;;;15.10;5.22;;;10.10;99.90;;;;;;4981296;28;20482;-64
2023/11/15 09:09:35;;;;;;;16.80;5.25;;;10.10;99.90;;;;;;4978904;28;20142;-64
2023/11/15 09:12:05;;;;;;;15.57;4.60;;;10.20;99.90;;;;;;4943520;28;20522;-64
2023/11/15 09:14:31;;;;;;;14.85;6.00;;;10.20;99.90;;;;;;4980639;28;20134;-64
2023/11/15 09:16:58;;;;;;;18.70;5.85;;;10.20;99.90;;;;;;4980289;28;20027;-64
2023/11/15 09:19:25;;;;;;;16.48;4.35;;;10.20;99.90;;;;;;4981462;28;20022;-65
2023/11/15 09:21:51;;;;;;;17.40;5.72;;;10.20;99.90;;;;;;4975353;28;20502;-64
2023/11/15 09:24:23;;;;;;;14.93;4.82;;;10.20;99.90;;;;;;4981097;28;20038;-64
2023/11/15 09:26:48;;;;;;;12.35;3.72;;;10.30;99.90;;;;;;4980786;28;20061;-64
2023/11/15 09:29:15;;;;;;;13.80;3.60;;;10.30;99.90;;;;;;4977202;28;20070;-64
2023/11/15 09:31:43;;;;;;;21.00;6.03;;;10.30;99.90;;;;;;4981814;28;20152;-64
2023/11/15 09:34:12;;;;;;;24.13;5.53;;;10.30;99.90;;;;;;4979898;28;20023;-64
2023/11/15 09:36:38;;;;;;;14.75;4.40;;;10.30;99.90;;;;;;4980053;28;20089;-64
2023/11/15 09:39:09;;;;;;;15.82;4.72;;;10.40;99.90;;;;;;4980731;28;20182;-64
2023/11/15 09:41:36;;;;;;;14.50;4.53;;;10.70;99.90;;;;;;4973645;28;20110;-64
2023/11/15 09:44:09;;;;;;;14.68;3.40;;;11.00;99.90;;;;;;4980692;28;20026;-64
2023/11/15 09:46:37;;;;;;;13.50;3.95;;;11.00;99.90;;;;;;4980044;28;20054;-64
2023/11/15 09:49:05;;;;;;;11.55;3.90;;;10.90;99.90;;;;;;4978717;28;20038;-64
2023/11/15 09:51:34;;;;;;;16.40;4.18;;;10.80;99.90;;;;;;4980264;28;20038;-64
2023/11/15 09:54:04;;;;;;;14.65;4.03;;;10.70;99.90;;;;;;4979530;28;20361;-64
2023/11/15 09:56:29;;;;;;;11.52;4.18;;;10.80;99.90;;;;;;4973084;28;20023;-64
2023/11/15 09:58:57;;;;;;;13.93;3.90;;;10.90;99.90;;;;;;4975773;28;20149;-64
2023/11/15 10:01:23;;;;;;;14.35;4.75;;;11.00;99.90;;;;;;4981687;28;20390;-64
2023/11/15 10:03:50;;;;;;;15.52;5.22;;;10.90;99.90;;;;;;4978058;28;20499;-64
2023/11/15 10:06:16;;;;;;;10.85;3.17;;;10.70;99.90;;;;;;4980658;28;20042;-64
2023/11/15 10:08:54;;;;;;;13.80;4.88;;;10.60;99.90;;;;;;4977625;28;20034;-64
2023/11/15 10:11:21;;;;;;;13.38;4.32;;;10.50;99.90;;;;;;4942700;28;20046;-64
2023/11/15 10:13:51;;;;;;;18.30;4.57;;;10.50;99.90;;;;;;4977693;28;20057;-64
2023/11/15 10:16:34;;;;;;;;;;;10.40;99.90;;;;;;4976272;28;20109;-64
2023/11/15 10:19:00;;;;;;;12.27;3.67;;;10.30;99.90;;;;;;4978307;28;20314;-64
2023/11/15 10:21:28;;;;;;;7.82;2.30;;;10.10;99.90;;;;;;4976788;28;20025;-64
2023/11/15 10:24:10;;;;;;;11.00;3.40;;;10.00;99.90;;;;;;4973866;28;20093;-64
2023/11/15 10:26:39;;;;;;;15.30;4.43;;;9.80;99.90;;;;;;4976716;28;20459;-65
2023/11/15 10:29:12;;;;;;;15.20;2.95;;;9.60;99.90;;;;;;4972178;28;20088;-66
2023/11/15 10:31:51;;;;;;;15.13;2.78;;;9.40;99.90;;;;;;4978312;28;20022;-66
2023/11/15 10:34:17;;;;;;;13.18;3.55;;;9.30;99.90;;;;;;4945525;28;20030;-66
2023/11/15 10:36:43;;;;;;;12.50;3.15;;;9.20;99.90;;;;;;4978671;28;20027;-66
2023/11/15 10:39:11;;;;;;;15.25;3.97;;;9.20;99.90;;;;;;4979027;28;20146;-65
2023/11/15 10:41:38;;;;;;;16.65;4.22;;;9.30;99.90;;;;;;4977032;28;20019;-65
2023/11/15 10:44:07;;;;;;;13.93;3.95;;;9.30;99.90;;;;;;4979954;28;20058;-65
2023/11/15 10:46:39;;;;;;;15.75;4.40;;;9.40;99.90;;;;;;4977155;28;20130;-65
2023/11/15 10:49:09;;;;;;;13.98;3.30;;;9.80;99.90;;;;;;4977582;28;20035;-65
2023/11/15 10:51:44;;;;;;;14.32;4.05;;;10.10;99.90;;;;;;4979471;28;20058;-65
2023/11/15 10:54:13;;;;;;;12.20;4.13;;;10.20;99.90;;;;;;4945684;28;20035;-65
2023/11/15 10:56:40;;;;;;;12.50;4.18;;;10.30;99.90;;;;;;4976709;28;20133;-65
2023/11/15 10:59:09;;;;;;;15.75;4.78;;;10.20;99.90;;;;;;4976672;28;20018;-65
2023/11/15 11:01:36;;;;;;;12.65;4.53;;;10.10;99.90;;;;;;4977872;28;20454;-65
2023/11/15 11:04:05;;;;;;;13.55;5.85;;;10.00;99.90;;;;;;4979297;28;20081;-65
2023/11/15 11:06:50;;;;;;;16.00;5.60;;;10.00;99.90;;;;;;4979773;28;20121;-66
2023/11/15 11:09:30;;;;;;;18.83;7.03;;;9.90;99.90;;;;;;4977311;28;20046;-66
2023/11/15 11:12:05;;;;;;;22.38;5.35;;;9.80;99.90;;;;;;4975124;28;20525;-66
2023/11/15 11:14:35;;;;;;;16.02;4.72;;;9.60;99.90;;;;;;4979403;28;20173;-67
2023/11/15 11:17:02;;;;;;;15.02;3.78;;;9.50;99.90;;;;;;4973587;28;20027;-66
2023/11/15 11:19:28;;;;;;;12.57;3.22;;;9.20;99.90;;;;;;4978008;28;20031;-64
2023/11/15 11:22:06;;;;;;;7.88;2.70;;;9.10;99.90;;;;;;4978270;28;20123;-64
2023/11/15 11:24:36;;;;;;;11.20;3.42;;;9.00;99.90;;;;;;4972695;28;20057;-64
2023/11/15 11:27:14;;;;;;;11.05;4.53;;;9.00;99.90;;;;;;4961830;28;20049;-64
2023/11/15 11:30:11;;;;;;;14.75;5.05;;;9.10;99.90;;;;;;4980854;28;20106;-64
2023/11/15 11:32:39;;;;;;;20.38;6.38;;;9.20;99.90;;;;;;4977997;28;20043;-63
2023/11/15 11:35:05;;;;;;;16.60;6.30;;;9.40;99.90;;;;;;4984204;28;20030;-63
2023/11/15 11:37:55;;;;;;;19.95;5.25;;;9.60;99.90;;;;;;4982149;28;20030;-63
2023/11/15 11:40:24;;;;;;;;;;;9.60;99.90;;;;;;4982144;28;20022;-63
2023/11/15 11:42:54;;;;;;;20.10;5.97;;;9.80;99.90;;;;;;4975199;28;19906;-63
2023/11/15 11:45:23;;;;;;;20.77;5.43;;;9.80;99.90;;;;;;4980014;28;20151;-63
2023/11/15 11:47:51;;;;;;;16.13;5.53;;;9.80;99.90;;;;;;4982669;28;20104;-63
2023/11/15 11:50:18;;;;;;;17.80;6.68;;;9.80;99.90;;;;;;4979882;28;20054;-63
2023/11/15 11:52:43;;;;;;;15.40;5.35;;;9.90;99.90;;;;;;4981673;28;20034;-63
2023/11/15 11:55:09;;;;;;;14.45;5.30;;;9.90;99.90;;;;;;4980795;28;20039;-63
2023/11/15 11:57:35;;;;;;;20.20;6.05;;;9.90;99.90;;;;;;4977375;28;20096;-63
2023/11/15 12:00:11;;;;;;;18.63;5.65;;;10.00;99.90;;;;;;4981800;28;20168;-63
2023/11/15 12:02:43;;;;;;;18.33;5.47;;;10.20;99.90;;;;;;4980336;28;20019;-63
2023/11/15 12:05:13;;;;;;;24.60;4.35;;;10.40;99.90;;;;;;4982691;28;20038;-63
2023/11/15 12:07:47;;;;;;;16.83;4.30;;;10.50;99.90;;;;;;4982243;28;20328;-63
2023/11/15 12:10:14;;;;;;;19.45;4.70;;;10.40;99.90;;;;;;4978040;28;20247;-63
2023/11/15 12:12:55;;;;;;;17.83;4.72;;;10.20;99.90;;;;;;4981392;28;20113;-63
2023/11/15 12:15:27;;;;;;;9.55;3.08;;;10.00;99.90;;;;;;4974193;28;20505;-63
2023/11/15 12:17:54;;;;;;;16.77;5.18;;;9.90;99.90;;;;;;4980222;28;20083;-63
2023/11/15 12:20:41;;;;;;;18.60;5.70;;;10.00;99.90;;;;;;4982572;28;20442;-63
2023/11/15 12:23:14;;;;;;;16.58;4.85;;;10.00;99.90;;;;;;4981383;28;20030;-63
2023/11/15 12:25:47;;;;;;;17.42;5.80;;;10.10;99.90;;;;;;4976411;28;20069;-63
2023/11/15 12:28:19;;;;;;;19.73;5.07;;;10.10;99.90;;;;;;4978324;28;20477;-63
2023/11/15 12:30:45;;;;;;;12.73;4.07;;;10.30;99.90;;;;;;4974821;28;20035;-63
2023/11/15 12:33:11;;;;;;;15.05;4.18;;;10.40;99.90;;;;;;4981568;28;20195;-63
2023/11/15 12:35:40;;;;;;;16.10;4.03;;;10.40;99.90;;;;;;4981380;28;20053;-63
2023/11/15 12:38:07;;;;;;;18.85;3.45;;;10.50;99.90;;;;;;4981027;28;20030;-63
2023/11/15 12:40:39;;;;;;;14.57;4.30;;;10.50;99.90;;;;;;4977158;28;20023;-63
2023/11/15 12:43:22;;;;;;;16.95;4.32;;;10.50;99.90;;;;;;4977104;28;20039;-63
2023/11/15 12:45:52;;;;;;;13.35;4.68;;;10.50;99.90;;;;;;4975183;28;20529;-63
2023/11/15 12:48:20;;;;;;;13.57;4.43;;;10.50;99.90;;;;;;4980740;28;20029;-63